Preview of NWS' New Version of Forecast
This preview is not operational and should not be used for support decisions.

Terminal Aerodrome Forecast (TAF)

Issued by National Weather Service (NWS)

                            
000
FTUS43 KDMX 221120
TAFALO
TAF
KALO 221120Z 2212/2312 00000KT P6SM SCT250
      TEMPO 2212/2213 1/2SM FG VV002
     FM221400 VRB03KT P6SM SCT250=